Time;durP1;ratioP1;P1;durP2;ratioP2;P2;SDS_P1;SDS_P2;PMS_P1;PMS_P2;Temp;Humidity;BMP_temperature;BMP_pressure;BME280_temperature;BME280_humidity;BME280_pressure;Samples;Min_cycle;Max_cycle;Signal;HPM_P1;HPM_P2
2022/04/04 00:01:00;;;;;;;8.60;4.38;;;;;;;0.38;69.75;100549.22;4901346;29;20045;-81
2022/04/04 00:03:28;;;;;;;8.77;4.60;;;;;;;0.35;70.68;100551.91;4901361;29;20044;-82
2022/04/04 00:05:57;;;;;;;8.52;4.60;;;;;;;0.41;69.28;100543.97;4901021;29;20048;-81
2022/04/04 00:08:27;;;;;;;8.00;4.40;;;;;;;0.31;71.23;100547.59;4902165;29;20084;-81
2022/04/04 00:10:57;;;;;;;8.63;4.90;;;;;;;0.35;70.29;100558.91;4901448;29;20558;-78
2022/04/04 00:13:25;;;;;;;7.85;3.95;;;;;;;0.37;70.68;100550.13;4901191;29;20483;-79
2022/04/04 00:15:54;;;;;;;8.63;4.85;;;;;;;0.34;70.79;100555.41;4901212;29;20477;-77
2022/04/04 00:18:23;;;;;;;8.25;4.30;;;;;;;0.31;70.72;100551.97;4901067;29;20132;-77
2022/04/04 00:20:51;;;;;;;7.13;4.43;;;;;;;0.25;70.79;100559.03;4901818;29;20507;-82
2022/04/04 00:23:20;;;;;;;8.45;4.43;;;;;;;0.20;70.61;100554.75;4901363;29;20124;-82
2022/04/04 00:25:49;;;;;;;8.10;4.72;;;;;;;0.20;71.45;100557.38;4900852;29;20048;-82
2022/04/04 00:28:19;;;;;;;9.00;4.55;;;;;;;0.26;71.14;100559.91;4900872;29;20045;-80
2022/04/04 00:30:47;;;;;;;7.80;4.45;;;;;;;0.15;71.20;100552.16;4901112;29;20083;-78
2022/04/04 00:33:16;;;;;;;9.57;4.60;;;;;;;0.16;71.56;100553.03;4900530;29;20045;-79
2022/04/04 00:35:45;;;;;;;7.57;4.30;;;;;;;0.23;70.28;100559.94;4901125;29;20433;-78
2022/04/04 00:38:14;;;;;;;9.50;4.80;;;;;;;0.28;70.53;100550.25;4883701;29;20088;-77
2022/04/04 00:40:43;;;;;;;7.57;4.30;;;;;;;0.21;70.46;100548.63;4900710;29;20545;-78
2022/04/04 00:43:11;;;;;;;9.95;4.72;;;;;;;0.25;69.75;100552.91;4900371;29;20092;-78
2022/04/04 00:45:46;;;;;;;7.68;4.53;;;;;;;0.34;69.08;100551.94;4900507;29;20116;-79
2022/04/04 00:48:14;;;;;;;9.38;4.95;;;;;;;0.27;70.00;100545.88;4900507;29;20573;-77
2022/04/04 00:50:42;;;;;;;9.65;5.05;;;;;;;0.26;69.70;100552.03;4900703;29;20132;-78
2022/04/04 00:53:11;;;;;;;9.27;4.65;;;;;;;0.28;69.83;100547.63;4900240;29;20052;-77
2022/04/04 00:55:40;;;;;;;8.35;4.32;;;;;;;0.22;70.04;100545.09;4900263;29;20466;-78
2022/04/04 00:58:09;;;;;;;8.85;4.70;;;;;;;0.27;69.84;100540.63;4900225;29;20079;-78
2022/04/04 01:00:38;;;;;;;9.02;5.18;;;;;;;0.14;70.86;100544.31;4900436;29;20049;-77
2022/04/04 01:03:08;;;;;;;9.15;4.70;;;;;;;0.15;70.94;100543.44;4883821;29;20049;-78
2022/04/04 01:05:36;;;;;;;11.38;4.32;;;;;;;0.12;70.76;100551.34;4900273;29;20504;-79
2022/04/04 01:08:05;;;;;;;10.45;5.05;;;;;;;0.13;67.58;100547.84;4899667;29;20056;-79
2022/04/04 01:10:33;;;;;;;7.60;4.15;;;;;;;0.07;67.98;100547.91;4900600;29;20112;-80
2022/04/04 01:13:01;;;;;;;9.00;4.65;;;;;;;0.16;68.06;100539.94;4900044;29;20086;-79
2022/04/04 01:15:32;;;;;;;7.78;4.60;;;;;;;0.11;69.80;100549.63;4900383;29;20052;-80
2022/04/04 01:18:01;;;;;;;9.00;4.75;;;;;;;0.13;68.14;100548.72;4899770;29;20055;-77
2022/04/04 01:20:31;;;;;;;8.90;4.65;;;;;;;0.09;69.08;100556.63;4899936;29;20049;-82
2022/04/04 01:23:00;;;;;;;10.57;4.97;;;;;;;0.09;68.81;100554.00;4899844;29;20071;-80
2022/04/04 01:25:31;;;;;;;8.13;4.60;;;;;;;0.12;68.41;100552.22;4900083;29;20048;-83
2022/04/04 01:28:01;;;;;;;8.65;4.45;;;;;;;0.14;68.57;100549.56;4899861;29;20044;-83
2022/04/04 01:30:31;;;;;;;7.88;4.40;;;;;;;-0.01;69.54;100553.25;4899607;29;20140;-84
2022/04/04 01:33:00;;;;;;;9.23;5.32;;;;;;;0.11;69.07;100545.25;4899615;29;20048;-83
2022/04/04 01:35:28;;;;;;;10.05;4.82;;;;;;;0.13;68.68;100550.47;4899776;29;20049;-83
2022/04/04 01:37:57;;;;;;;8.38;5.03;;;;;;;0.18;67.63;100556.50;4899736;29;20055;-77
2022/04/04 01:40:25;;;;;;;9.70;5.05;;;;;;;0.18;68.09;100556.50;4899678;29;20483;-83
2022/04/04 01:42:56;;;;;;;9.95;5.22;;;;;;;0.11;68.35;100554.88;4899560;29;20073;-84
2022/04/04 01:48:07;;;;;;;8.48;4.85;;;;;;;0.04;68.51;100561.06;4898396;29;20048;-81
2022/04/04 01:50:36;;;;;;;10.18;5.35;;;;;;;0.05;68.02;100554.94;4899397;29;20417;-79
2022/04/04 01:55:51;;;;;;;9.93;5.35;;;;;;;0.12;67.56;100562.72;4899479;29;20048;-81
2022/04/04 01:58:21;;;;;;;8.48;4.53;;;;;;;0.09;67.18;100561.88;4899329;29;20474;-81
2022/04/04 02:00:49;;;;;;;8.68;4.68;;;;;;;0.08;66.79;100560.13;4899052;29;20048;-82
2022/04/04 02:03:18;;;;;;;8.02;4.63;;;;;;;0.09;66.68;100561.88;4898220;29;20048;-84
2022/04/04 02:05:47;;;;;;;7.82;4.85;;;;;;;0.09;66.32;100557.47;4899280;29;20045;-83
2022/04/04 02:08:15;;;;;;;11.40;4.50;;;;;;;-0.01;67.24;100563.72;4898907;29;20045;-84
2022/04/04 02:10:44;;;;;;;8.52;4.72;;;;;;;-0.03;66.19;100563.75;4898927;29;20092;-77
2022/04/04 02:13:13;;;;;;;10.23;4.65;;;;;;;0.04;66.18;100566.31;4898622;29;20495;-78
2022/04/04 02:15:42;;;;;;;9.75;4.95;;;;;;;-0.01;67.75;100569.84;4899140;29;20041;-78
2022/04/04 02:18:11;;;;;;;7.65;4.70;;;;;;;-0.05;67.44;100560.28;4898829;29;20109;-76
2022/04/04 02:20:39;;;;;;;8.63;4.55;;;;;;;-0.05;67.00;100565.53;4898125;29;20051;-78
2022/04/04 02:23:07;;;;;;;7.50;4.38;;;;;;;-0.07;67.18;100561.22;4898698;29;20096;-83
2022/04/04 02:25:35;;;;;;;6.82;4.55;;;;;;;-0.12;68.74;100561.25;4898579;29;20553;-82
2022/04/04 02:28:05;;;;;;;9.18;5.05;;;;;;;-0.17;68.51;100564.81;4898729;29;20076;-81
2022/04/04 02:30:33;;;;;;;8.52;5.05;;;;;;;-0.14;68.62;100565.66;4898654;29;20451;-79
2022/04/04 02:33:03;;;;;;;7.45;4.60;;;;;;;-0.20;68.56;100560.47;4898515;29;20052;-80
2022/04/04 02:35:31;;;;;;;10.60;5.18;;;;;;;-0.21;69.12;100568.34;4898810;29;20083;-80
2022/04/04 02:38:00;;;;;;;10.30;5.30;;;;;;;-0.28;70.67;100567.56;4898344;29;20087;-78
2022/04/04 02:40:28;;;;;;;8.82;4.78;;;;;;;-0.26;70.36;100565.78;4898611;29;20403;-79
2022/04/04 02:42:57;;;;;;;8.68;5.28;;;;;;;-0.37;70.87;100572.91;4898671;29;20052;-80
2022/04/04 02:45:25;;;;;;;9.13;5.47;;;;;;;-0.33;70.21;100570.22;4898357;29;20132;-79
2022/04/04 02:47:53;;;;;;;10.30;5.38;;;;;;;-0.26;69.98;100573.66;4898370;29;20052;-79
2022/04/04 02:50:23;;;;;;;7.70;5.20;;;;;;;-0.28;70.30;100580.69;4898130;29;20144;-79
2022/04/04 02:52:52;;;;;;;11.05;5.30;;;;;;;-0.31;71.10;100573.69;4898620;29;20108;-79
2022/04/04 02:58:07;;;;;;;8.80;4.90;;;;;;;-0.51;72.38;100583.50;4898179;29;20036;-79
2022/04/04 03:00:35;;;;;;;10.25;5.22;;;;;;;-0.52;72.51;100571.28;4898067;29;20086;-79
2022/04/04 03:03:06;;;;;;;9.70;5.15;;;;;;;-0.34;70.29;100584.22;4897989;29;20482;-78
2022/04/04 03:05:36;;;;;;;9.15;5.22;;;;;;;-0.32;69.77;100586.81;4898043;29;20440;-82
2022/04/04 03:08:06;;;;;;;10.93;5.95;;;;;;;-0.34;70.91;100583.34;4898107;29;20123;-81
2022/04/04 03:10:35;;;;;;;9.30;5.38;;;;;;;-0.37;70.34;100578.16;4898341;29;20489;-81
2022/04/04 03:13:05;;;;;;;10.48;5.38;;;;;;;-0.35;70.15;100586.84;4897824;29;20498;-77
2022/04/04 03:15:35;;;;;;;13.60;5.78;;;;;;;-0.46;71.23;100575.63;4897830;29;20075;-77
2022/04/04 03:18:05;;;;;;;10.48;5.60;;;;;;;-0.48;71.93;100579.97;4897976;29;20048;-78
2022/04/04 03:20:34;;;;;;;12.27;6.03;;;;;;;-0.52;72.19;100588.78;4898154;29;20047;-78
2022/04/04 03:23:04;;;;;;;11.60;5.90;;;;;;;-0.49;72.07;100586.13;4897893;29;20079;-78
2022/04/04 03:25:32;;;;;;;10.25;5.68;;;;;;;-0.40;70.69;100583.41;4897971;29;20049;-79
2022/04/04 03:28:00;;;;;;;11.45;5.65;;;;;;;-0.41;71.66;100582.53;4897730;29;20050;-80
2022/04/04 03:30:30;;;;;;;13.55;6.53;;;;;;;-0.50;72.66;100589.63;4898152;29;20159;-76
2022/04/04 03:32:59;;;;;;;9.60;5.72;;;;;;;-0.36;71.62;100588.63;4904230;29;20459;-77
2022/04/04 03:35:29;;;;;;;11.38;6.03;;;;;;;-0.54;73.25;100585.31;4903951;29;20433;-77
2022/04/04 03:37:59;;;;;;;10.73;6.00;;;;;;;-0.56;72.51;100585.31;4904080;29;20486;-77
2022/04/04 03:40:29;;;;;;;12.40;5.93;;;;;;;-0.47;72.36;100597.47;4904128;29;20040;-76
2022/04/04 03:43:00;;;;;;;13.23;6.03;;;;;;;-0.49;72.00;100588.72;4904295;29;20052;-77
2022/04/04 03:45:28;;;;;;;10.98;5.72;;;;;;;-0.52;72.22;100597.50;4903748;29;20128;-77
2022/04/04 03:47:59;;;;;;;11.73;6.25;;;;;;;-0.56;73.52;100595.81;4903933;29;20050;-77
2022/04/04 03:50:28;;;;;;;12.40;6.22;;;;;;;-0.58;72.95;100597.53;4903765;29;20044;-76
2022/04/04 03:52:58;;;;;;;13.65;5.90;;;;;;;-0.69;73.79;100607.25;4903921;29;20486;-77
2022/04/04 03:55:28;;;;;;;9.88;5.50;;;;;;;-0.81;74.55;100597.75;4903878;29;20049;-76
2022/04/04 03:57:59;;;;;;;12.43;6.82;;;;;;;-0.96;78.40;100600.53;4904496;29;20048;-78
2022/04/04 04:00:27;;;;;;;11.38;6.22;;;;;;;-1.02;78.63;100603.19;4903465;29;20100;-77
2022/04/04 04:02:56;;;;;;;13.85;6.30;;;;;;;-1.11;83.11;100603.25;4903885;29;20047;-76
2022/04/04 04:05:25;;;;;;;13.40;6.35;;;;;;;-1.22;82.53;100617.28;4903484;29;20056;-77
2022/04/04 04:07:53;;;;;;;11.35;6.38;;;;;;;-1.23;82.59;100609.44;4903866;29;20095;-88
2022/04/04 04:10:22;;;;;;;11.73;6.45;;;;;;;-1.19;83.06;100612.00;4903782;29;20053;-82
2022/04/04 04:12:53;;;;;;;12.88;6.70;;;;;;;-1.24;84.87;100615.56;4903869;29;20124;-82
2022/04/04 04:15:25;;;;;;;12.57;6.97;;;;;;;-1.24;84.53;100616.41;4903654;29;20132;-83
2022/04/04 04:17:54;;;;;;;15.43;6.23;;;;;;;-1.23;82.76;100619.91;4903928;29;20048;-82
2022/04/04 04:20:29;;;;;;;13.27;7.40;;;;;;;-1.21;83.59;100618.13;4903686;29;20049;-83
2022/04/04 04:23:00;;;;;;;9.63;6.00;;;;;;;-1.24;84.06;100616.41;4904255;29;20044;-88
2022/04/04 04:25:31;;;;;;;11.70;6.13;;;;;;;-1.16;83.57;100616.34;4903787;29;20072;-90
2022/04/04 04:28:01;;;;;;;12.98;6.35;;;;;;;-1.17;83.20;100609.38;4903865;29;20045;-88
2022/04/04 04:30:31;;;;;;;11.10;6.35;;;;;;;-0.90;80.25;100610.94;4903658;29;20558;-82
2022/04/04 04:33:00;;;;;;;11.52;6.70;;;;;;;-0.84;78.96;100613.50;4904198;29;20080;-82
2022/04/04 04:35:29;;;;;;;11.40;5.95;;;;;;;-0.73;78.13;100610.81;4904398;29;20111;-83
2022/04/04 04:37:57;;;;;;;16.08;7.53;;;;;;;-0.83;78.54;100620.47;4903843;29;20131;-81
2022/04/04 04:40:25;;;;;;;16.95;8.30;;;;;;;-0.67;76.06;100616.88;4903880;29;20496;-80
2022/04/04 04:42:54;;;;;;;15.52;7.50;;;;;;;-0.77;77.10;100619.53;4901805;29;20040;-82
2022/04/04 04:45:23;;;;;;;15.73;7.60;;;;;;;-0.81;77.12;100623.94;4900647;29;20081;-83
2022/04/04 04:47:52;;;;;;;17.30;8.40;;;;;;;-0.87;79.91;100614.41;4901787;29;20135;-86
2022/04/04 04:50:22;;;;;;;16.48;8.40;;;;;;;-0.89;80.86;100620.53;4900478;29;20049;-78
2022/04/04 04:52:51;;;;;;;14.88;9.00;;;;;;;-0.85;81.53;100621.38;4900616;29;20478;-79
2022/04/04 04:55:21;;;;;;;19.10;8.15;;;;;;;-0.74;80.91;100620.41;4900262;29;20498;-80
2022/04/04 04:57:50;;;;;;;17.10;7.65;;;;;;;-0.60;80.64;100626.38;4900923;29;20470;-81
2022/04/04 05:00:21;;;;;;;13.27;7.00;;;;;;;-0.38;76.96;100626.22;4900435;29;20044;-80
2022/04/04 05:03:24;;;;;;;13.57;7.28;;;;;;;-0.13;75.46;100627.69;4900412;29;20108;-78
2022/04/04 05:05:39;;;;;;;15.30;6.97;;;;;;;0.02;73.29;100633.66;4900199;29;20504;-79
2022/04/04 05:08:08;;;;;;;10.77;6.72;;;;;;;0.07;72.26;100635.34;4899996;29;20059;-77
2022/04/04 05:10:37;;;;;;;9.57;6.43;;;;;;;0.07;71.16;100626.59;4900205;29;20048;-80
2022/04/04 05:13:05;;;;;;;10.80;6.25;;;;;;;0.04;70.43;100631.88;4900119;29;20387;-78
2022/04/04 05:15:34;;;;;;;12.23;6.30;;;;;;;0.08;69.81;100628.34;4899796;29;20084;-79
2022/04/04 05:18:02;;;;;;;13.57;7.00;;;;;;;0.04;72.84;100634.50;4899951;29;20048;-79
2022/04/04 05:20:31;;;;;;;12.25;6.47;;;;;;;0.10;70.88;100637.06;4899605;29;20079;-78
2022/04/04 05:23:00;;;;;;;11.45;6.30;;;;;;;0.24;70.08;100645.63;4900075;29;20045;-78
2022/04/04 05:25:29;;;;;;;12.60;6.60;;;;;;;0.42;69.25;100640.16;4900822;29;20056;-82
2022/04/04 05:27:57;;;;;;;10.73;6.30;;;;;;;0.46;68.54;100641.00;4901997;29;20434;-75
2022/04/04 05:30:26;;;;;;;11.70;6.78;;;;;;;0.61;68.21;100642.56;4899682;29;20099;-74
2022/04/04 05:32:55;;;;;;;12.75;6.47;;;;;;;0.89;65.31;100646.53;4899419;29;20117;-73
2022/04/04 05:35:23;;;;;;;11.25;6.32;;;;;;;0.99;64.53;100642.88;4899540;29;20044;-77
2022/04/04 05:37:54;;;;;;;12.35;5.75;;;;;;;1.25;63.16;100644.22;4899055;29;20490;-77
2022/04/04 05:40:25;;;;;;;12.50;6.65;;;;;;;1.41;62.06;100648.34;4899064;29;20052;-76
2022/04/04 05:42:55;;;;;;;10.45;6.78;;;;;;;1.56;61.73;100650.75;4899252;29;20048;-76
2022/04/04 05:45:23;;;;;;;11.75;6.43;;;;;;;1.80;60.07;100646.81;4899157;29;20105;-77
2022/04/04 05:47:52;;;;;;;11.45;7.15;;;;;;;1.66;61.44;100652.31;4899332;29;20052;-76
2022/04/04 05:50:20;;;;;;;12.27;6.57;;;;;;;1.64;60.76;100659.38;4899097;29;20115;-76
2022/04/04 05:52:48;;;;;;;9.68;6.15;;;;;;;1.67;60.40;100658.44;4899224;29;20045;-78
2022/04/04 05:55:17;;;;;;;9.80;5.95;;;;;;;1.57;61.92;100663.00;4897809;29;20051;-78
2022/04/04 05:57:47;;;;;;;14.98;6.85;;;;;;;1.67;61.15;100667.19;4899320;29;20486;-81
2022/04/04 06:00:17;;;;;;;13.57;6.70;;;;;;;1.75;60.64;100658.31;4898928;29;20517;-79
2022/04/04 06:02:47;;;;;;;11.60;6.60;;;;;;;1.86;60.54;100664.25;4899304;29;20041;-80
2022/04/04 06:05:15;;;;;;;10.75;7.00;;;;;;;2.06;60.47;100662.13;4898509;29;20418;-78
2022/04/04 06:07:44;;;;;;;11.20;6.50;;;;;;;2.24;58.23;100660.91;4899077;29;20048;-77
2022/04/04 06:10:13;;;;;;;11.38;6.03;;;;;;;2.39;57.10;100659.72;4899099;29;20443;-77
2022/04/04 06:12:43;;;;;;;9.85;6.05;;;;;;;2.52;56.67;100667.34;4898888;29;20048;-79
2022/04/04 06:15:14;;;;;;;12.20;5.78;;;;;;;2.63;55.68;100674.16;4898962;29;20048;-83
2022/04/04 06:17:44;;;;;;;9.88;5.93;;;;;;;2.76;55.93;100663.31;4900399;29;20049;-89
2022/04/04 06:20:13;;;;;;;10.80;5.75;;;;;;;2.78;55.45;100669.41;4899365;29;20073;-83
2022/04/04 06:22:42;;;;;;;12.13;5.88;;;;;;;2.92;54.83;100671.75;4898407;29;20040;-79
2022/04/04 06:25:13;;;;;;;11.80;5.78;;;;;;;2.91;56.31;100667.41;4898409;29;20076;-86
2022/04/04 06:27:42;;;;;;;11.85;5.68;;;;;;;3.09;55.77;100674.03;4898786;29;20100;-86
2022/04/04 06:30:13;;;;;;;8.88;5.30;;;;;;;3.30;54.90;100673.53;4898247;29;20135;-78
2022/04/04 06:32:43;;;;;;;8.95;5.30;;;;;;;3.48;53.15;100674.00;4898551;29;20053;-78
2022/04/04 06:35:12;;;;;;;10.95;4.90;;;;;;;3.70;52.14;100669.91;4888680;29;20056;-80
2022/04/04 06:37:40;;;;;;;11.13;4.75;;;;;;;3.88;51.89;100671.22;4884406;29;20053;-79
2022/04/04 06:40:10;;;;;;;8.43;4.53;;;;;;;4.29;49.44;100664.81;4879798;29;20101;-78
2022/04/04 06:42:40;;;;;;;9.70;5.10;;;;;;;4.70;47.49;100668.03;4879411;29;20541;-83
2022/04/04 06:45:10;;;;;;;7.70;5.05;;;;;;;4.64;48.50;100661.16;4879987;29;20079;-84
2022/04/04 06:47:41;;;;;;;9.27;5.28;;;;;;;5.08;47.98;100659.81;4879232;29;20502;-77
2022/04/04 06:50:09;;;;;;;8.65;5.70;;;;;;;5.08;46.22;100658.94;4879470;29;20083;-78
2022/04/04 06:52:37;;;;;;;10.88;5.40;;;;;;;5.39;45.52;100664.97;4879263;29;20048;-80
2022/04/04 06:55:26;;;;;;;7.22;4.25;;;;;;;5.28;42.82;100666.25;4879338;29;20101;-79
2022/04/04 06:57:55;;;;;;;8.70;4.10;;;;;;;4.95;42.69;100676.09;4879378;29;20103;-78
2022/04/04 07:00:24;;;;;;;7.35;3.80;;;;;;;4.69;41.98;100677.75;4878982;29;20114;-79
2022/04/04 07:02:55;;;;;;;6.70;3.67;;;;;;;4.40;42.31;100675.94;4879121;29;20045;-78
2022/04/04 07:05:24;;;;;;;8.48;3.97;;;;;;;4.01;42.48;100681.38;4879009;29;20049;-78
2022/04/04 07:07:52;;;;;;;6.32;3.60;;;;;;;3.92;41.88;100676.34;4879097;29;20041;-78
2022/04/04 07:10:21;;;;;;;6.32;3.70;;;;;;;3.82;41.92;100681.91;4879184;29;20128;-78
2022/04/04 07:12:50;;;;;;;6.15;3.92;;;;;;;3.92;43.04;100676.34;4879772;29;20072;-78
2022/04/04 07:15:18;;;;;;;8.73;4.15;;;;;;;3.98;42.23;100684.13;4879358;29;20056;-79
2022/04/04 07:17:46;;;;;;;9.18;4.10;;;;;;;4.06;43.18;100680.41;4879302;29;20053;-79
2022/04/04 07:20:19;;;;;;;6.57;3.72;;;;;;;3.94;41.67;100678.94;4879179;29;20041;-77
2022/04/04 07:22:48;;;;;;;8.60;4.20;;;;;;;3.77;43.02;100684.69;4879208;29;20055;-80
2022/04/04 07:25:16;;;;;;;7.88;4.03;;;;;;;3.62;43.21;100672.72;4878942;29;20448;-79
2022/04/04 07:27:46;;;;;;;8.75;4.20;;;;;;;3.77;43.33;100674.13;4878593;29;20053;-80
2022/04/04 07:30:17;;;;;;;11.15;4.45;;;;;;;3.85;44.28;100677.41;4879151;29;20128;-79
2022/04/04 07:32:47;;;;;;;6.22;3.97;;;;;;;3.55;43.64;100683.47;4879010;29;20060;-80
2022/04/04 07:35:18;;;;;;;7.53;4.05;;;;;;;3.60;42.90;100678.94;4879190;29;20056;-78
2022/04/04 07:37:48;;;;;;;7.22;4.00;;;;;;;3.56;42.97;100686.06;4878717;29;20100;-78
2022/04/04 07:40:19;;;;;;;5.15;3.33;;;;;;;3.52;39.24;100688.81;4879180;29;20501;-78
2022/04/04 07:42:48;;;;;;;5.03;3.15;;;;;;;3.47;39.17;100674.88;4878864;29;20051;-79
2022/04/04 07:45:18;;;;;;;5.35;3.30;;;;;;;3.53;40.57;100683.50;4878801;29;20443;-80
2022/04/04 07:47:50;;;;;;;5.75;2.80;;;;;;;3.49;38.00;100688.91;4879311;29;20055;-78
2022/04/04 07:50:20;;;;;;;5.15;2.65;;;;;;;3.49;37.14;100686.28;4878953;29;20172;-80
2022/04/04 07:52:49;;;;;;;5.43;3.03;;;;;;;3.59;37.13;100679.88;4878964;29;20086;-79
2022/04/04 07:55:17;;;;;;;6.25;3.20;;;;;;;3.57;37.86;100672.00;4878919;29;20452;-80
2022/04/04 07:57:47;;;;;;;5.47;3.20;;;;;;;3.70;37.77;100677.81;4878967;29;20077;-79
2022/04/04 08:00:17;;;;;;;6.13;3.22;;;;;;;3.88;38.41;100676.47;4879134;29;20077;-79
2022/04/04 08:02:46;;;;;;;6.85;3.70;;;;;;;3.89;39.64;100668.53;4878643;29;20455;-80
2022/04/04 08:05:16;;;;;;;6.55;3.67;;;;;;;3.98;38.67;100663.00;4878843;29;20045;-78
2022/04/04 08:07:48;;;;;;;6.13;3.20;;;;;;;3.98;38.64;100657.72;4878801;29;20120;-79
2022/04/04 08:10:17;;;;;;;5.90;3.70;;;;;;;3.92;39.31;100667.56;4879026;29;20056;-77
2022/04/04 08:12:46;;;;;;;7.72;3.38;;;;;;;3.74;38.67;100661.84;4878293;29;20109;-79
2022/04/04 08:15:14;;;;;;;6.65;3.30;;;;;;;3.92;39.48;100668.44;4878830;29;20049;-79
2022/04/04 08:17:42;;;;;;;6.05;3.30;;;;;;;3.95;38.44;100668.34;4878630;29;20049;-79
2022/04/04 08:20:12;;;;;;;6.32;3.22;;;;;;;4.07;39.16;100661.03;4882368;29;20406;-80
2022/04/04 08:22:42;;;;;;;7.43;3.63;;;;;;;4.30;39.36;100663.91;4881934;29;20045;-79
2022/04/04 08:25:14;;;;;;;7.95;4.00;;;;;;;4.09;39.68;100660.06;4882354;29;20049;-78
2022/04/04 08:27:43;;;;;;;6.38;3.70;;;;;;;4.16;39.55;100663.41;4881729;29;20073;-79
2022/04/04 08:30:14;;;;;;;6.95;3.50;;;;;;;4.23;41.55;100662.31;4881863;29;20060;-77
2022/04/04 08:32:43;;;;;;;6.50;3.58;;;;;;;4.17;40.40;100662.50;4881979;29;20051;-79
2022/04/04 08:35:15;;;;;;;7.55;3.38;;;;;;;4.11;40.63;100652.09;4882012;29;20045;-80
2022/04/04 08:37:44;;;;;;;5.93;3.80;;;;;;;4.33;41.12;100653.22;4881744;29;20045;-77
2022/04/04 08:40:18;;;;;;;7.53;3.50;;;;;;;4.37;41.13;100641.69;4881921;29;20463;-79
2022/04/04 08:42:47;;;;;;;6.70;3.80;;;;;;;4.25;40.38;100647.31;4881774;29;20464;-79
2022/04/04 08:45:16;;;;;;;8.10;4.07;;;;;;;4.10;40.17;100634.53;4882151;29;20101;-80
2022/04/04 08:47:45;;;;;;;7.13;3.72;;;;;;;4.22;39.95;100639.47;4881613;29;20041;-78
2022/04/04 08:50:14;;;;;;;7.38;3.95;;;;;;;4.17;40.44;100630.81;4881705;29;20057;-78
2022/04/04 08:52:43;;;;;;;7.38;3.60;;;;;;;4.19;41.15;100623.72;4880921;29;20049;-79
2022/04/04 08:55:13;;;;;;;5.82;3.72;;;;;;;4.27;39.55;100622.59;4881196;29;20071;-81
2022/04/04 08:57:42;;;;;;;7.97;3.67;;;;;;;4.30;38.42;100626.91;4881280;29;20044;-80
2022/04/04 09:00:12;;;;;;;6.15;3.38;;;;;;;4.43;40.70;100625.66;4881326;29;20053;-80
2022/04/04 09:03:02;;;;;;;6.53;3.63;;;;;;;4.25;40.98;100621.78;4881160;29;20045;-76
2022/04/04 09:05:32;;;;;;;6.38;3.63;;;;;;;4.32;39.90;100615.41;4881184;29;20426;-78
2022/04/04 09:08:03;;;;;;;8.48;4.00;;;;;;;4.51;42.40;100610.44;4881689;29;20049;-79
2022/04/04 09:10:33;;;;;;;9.35;4.13;;;;;;;4.73;42.07;100607.16;4881213;29;20045;-81
2022/04/04 09:13:11;;;;;;;6.32;3.55;;;;;;;4.47;39.81;100598.25;4881598;29;20455;-78
2022/04/04 09:15:55;;;;;;;7.57;4.22;;;;;;;4.52;41.61;100596.31;4881271;29;20044;-77
2022/04/04 09:18:49;;;;;;;3.95;2.58;;;;;;;4.86;38.87;100595.31;4881710;29;20542;-79
2022/04/04 09:21:34;;;;;;;;;;;;;;;4.77;40.75;100590.31;4881654;29;20049;-77
2022/04/04 09:24:11;;;;;;;5.07;3.10;;;;;;;5.01;40.25;100586.88;4881186;29;19924;-77
2022/04/04 09:26:41;;;;;;;7.95;3.78;;;;;;;5.07;39.96;100578.75;4880769;29;20082;-77
2022/04/04 09:29:19;;;;;;;6.53;3.50;;;;;;;5.16;39.51;100582.88;4880538;29;20049;-79
2022/04/04 09:31:59;;;;;;;6.10;3.13;;;;;;;5.09;38.52;100581.34;4880792;29;20059;-78
2022/04/04 09:34:28;;;;;;;5.65;3.20;;;;;;;5.40;39.48;100575.91;4881173;29;20442;-78
2022/04/04 09:36:58;;;;;;;6.85;3.20;;;;;;;5.15;39.28;100571.44;4880922;29;20049;-79
2022/04/04 09:39:26;;;;;;;7.07;3.55;;;;;;;5.22;39.94;100572.13;4881108;29;20057;-77
2022/04/04 09:41:59;;;;;;;7.35;3.42;;;;;;;5.22;40.11;100563.31;4880726;29;20049;-76
2022/04/04 09:44:28;;;;;;;6.60;3.67;;;;;;;5.30;40.82;100553.31;4880873;29;20109;-80
2022/04/04 09:46:57;;;;;;;7.00;4.18;;;;;;;5.27;40.86;100550.78;4880686;29;20407;-76
2022/04/04 09:49:25;;;;;;;5.63;3.30;;;;;;;5.52;41.31;100546.41;4880545;29;20083;-77
2022/04/04 09:51:55;;;;;;;7.30;4.32;;;;;;;5.69;41.48;100551.97;4880603;29;20128;-78
2022/04/04 09:54:26;;;;;;;7.35;4.30;;;;;;;5.37;40.10;100550.41;4880830;29;20132;-76
2022/04/04 09:56:57;;;;;;;8.20;4.40;;;;;;;5.60;41.59;100546.13;4880619;29;20059;-80
2022/04/04 09:59:33;;;;;;;7.97;4.93;;;;;;;5.45;42.35;100543.09;4864305;29;20061;-77
2022/04/04 10:02:02;;;;;;;7.72;4.57;;;;;;;5.44;42.64;100532.56;4880798;29;20045;-78
2022/04/04 10:04:32;;;;;;;7.05;4.22;;;;;;;5.67;41.85;100527.31;4880148;29;20087;-80
2022/04/04 10:07:03;;;;;;;8.50;4.55;;;;;;;5.82;41.45;100525.06;4880337;29;20053;-78
2022/04/04 10:09:32;;;;;;;10.07;4.55;;;;;;;5.81;41.13;100536.56;4880497;29;20048;-80
2022/04/04 10:12:01;;;;;;;8.98;4.80;;;;;;;5.52;40.75;100538.47;4880128;29;20060;-79
2022/04/04 10:14:32;;;;;;;7.18;4.63;;;;;;;5.44;42.15;100528.13;4880337;29;20247;-79
2022/04/04 10:17:01;;;;;;;8.25;4.90;;;;;;;5.85;43.58;100517.00;4880730;29;20076;-80
2022/04/04 10:19:30;;;;;;;8.77;5.95;;;;;;;6.16;44.35;100514.97;4879851;29;20096;-79
2022/04/04 10:21:59;;;;;;;10.45;6.18;;;;;;;6.40;43.54;100504.38;4879663;29;20052;-79
2022/04/04 10:24:27;;;;;;;9.82;5.68;;;;;;;6.66;42.60;100493.59;4879680;29;20051;-79
2022/04/04 10:26:58;;;;;;;7.88;4.95;;;;;;;6.14;40.64;100508.84;4879371;29;20451;-77
2022/04/04 10:29:41;;;;;;;7.32;4.85;;;;;;;6.29;41.81;100499.47;4879581;29;20053;-79
2022/04/04 10:32:23;;;;;;;7.65;4.78;;;;;;;6.07;44.11;100499.41;4879484;29;20049;-79
2022/04/04 10:34:52;;;;;;;10.52;5.75;;;;;;;6.03;44.26;100495.16;4879504;29;20049;-79
2022/04/04 10:37:21;;;;;;;9.18;6.22;;;;;;;6.15;44.10;100484.09;4879244;29;20053;-79
2022/04/04 10:39:50;;;;;;;6.75;3.83;;;;;;;6.29;42.30;100491.53;4879689;29;20045;-78
2022/04/04 10:42:27;;;;;;;8.38;5.30;;;;;;;6.39;42.08;100486.75;4879089;29;20045;-80
2022/04/04 10:45:10;;;;;;;9.02;5.50;;;;;;;6.47;43.43;100485.53;4879614;29;20384;-80
2022/04/04 10:47:40;;;;;;;9.18;5.40;;;;;;;6.79;43.71;100467.44;4879097;29;20483;-77
2022/04/04 10:50:24;;;;;;;8.50;5.63;;;;;;;6.59;43.68;100463.81;4879516;29;20044;-80
2022/04/04 10:52:53;;;;;;;8.32;4.90;;;;;;;6.72;43.82;100464.16;4879086;29;20049;-77
2022/04/04 10:55:54;;;;;;;7.22;4.97;;;;;;;6.83;42.57;100459.28;4879479;29;20394;-79
2022/04/04 10:58:27;;;;;;;7.40;4.82;;;;;;;7.11;42.97;100460.78;4879594;29;20045;-77
2022/04/04 11:01:15;;;;;;;8.45;5.10;;;;;;;6.73;42.23;100457.94;4879296;29;20479;-77
2022/04/04 11:03:58;;;;;;;8.50;5.43;;;;;;;6.83;42.28;100448.69;4879111;29;20080;-80
2022/04/04 11:09:36;;;;;;;11.38;6.72;;;;;;;6.98;42.71;100446.31;4879381;29;20057;-80
2022/04/04 11:12:12;;;;;;;7.75;4.90;;;;;;;7.11;42.21;100450.19;4879358;29;20347;-79
2022/04/04 11:14:46;;;;;;;5.35;3.60;;;;;;;6.76;41.43;100441.06;4878907;29;20063;-78
2022/04/04 11:17:30;;;;;;;7.93;4.95;;;;;;;6.91;41.78;100442.19;4879582;29;20049;-79
2022/04/04 11:20:04;;;;;;;8.55;5.55;;;;;;;7.40;41.08;100441.81;4879009;29;20085;-78
2022/04/04 11:22:35;;;;;;;7.50;4.35;;;;;;;7.15;40.76;100435.88;4879248;29;20454;-78
2022/04/04 11:25:05;;;;;;;10.32;5.30;;;;;;;7.33;41.04;100427.06;4878830;29;20072;-78
2022/04/04 11:27:35;;;;;;;8.48;4.03;;;;;;;7.39;40.45;100429.47;4878798;29;20495;-78
2022/04/04 11:30:07;;;;;;;7.20;3.03;;;;;;;7.36;40.67;100426.97;4878940;29;20057;-79
2022/04/04 11:32:40;;;;;;;4.93;3.05;;;;;;;7.18;41.54;100425.13;4879192;29;20443;-77
2022/04/04 11:35:15;;;;;;;9.63;5.00;;;;;;;7.27;41.38;100430.03;4879162;29;20049;-77
2022/04/04 11:37:46;;;;;;;8.23;4.43;;;;;;;7.49;41.37;100426.41;4878692;29;20057;-77
2022/04/04 11:40:18;;;;;;;7.13;4.57;;;;;;;7.65;41.53;100427.47;4879197;29;20421;-79
2022/04/04 11:42:50;;;;;;;7.30;4.80;;;;;;;7.63;40.69;100411.59;4879021;29;20052;-77
2022/04/04 11:45:21;;;;;;;7.15;4.53;;;;;;;7.68;41.16;100416.69;4878888;29;20049;-77
2022/04/04 11:47:52;;;;;;;6.43;3.53;;;;;;;7.73;40.75;100414.69;4878729;29;20055;-79
2022/04/04 11:50:23;;;;;;;8.68;4.28;;;;;;;7.53;41.36;100409.41;4878828;29;20494;-80
2022/04/04 11:52:54;;;;;;;5.88;3.90;;;;;;;7.93;40.77;100406.66;4864138;29;20063;-78
2022/04/04 11:55:25;;;;;;;6.97;3.88;;;;;;;8.08;39.84;100405.06;4882847;29;20462;-78